createdAt,value
2018-06-20T00:00:09.107Z,4.47
2018-06-20T00:02:37.395Z,4.63
2018-06-20T00:05:05.673Z,5.30
2018-06-20T00:07:33.919Z,5.80
2018-06-20T00:10:02.253Z,5.83
2018-06-20T00:12:30.440Z,6.60
2018-06-20T00:14:58.612Z,8.40
2018-06-20T00:17:26.706Z,7.10
2018-06-20T00:19:55.055Z,5.90
2018-06-20T00:22:23.248Z,5.03
2018-06-20T00:24:51.474Z,6.33
2018-06-20T00:27:19.618Z,5.03
2018-06-20T00:29:47.784Z,9.10
2018-06-20T00:32:15.929Z,5.60
2018-06-20T00:34:44.092Z,6.20
2018-06-20T00:37:12.318Z,9.63
2018-06-20T00:39:40.579Z,6.50
2018-06-20T00:42:08.787Z,6.63
2018-06-20T00:44:36.984Z,5.70
2018-06-20T00:47:05.284Z,6.10
2018-06-20T00:49:33.433Z,9.00
2018-06-20T00:52:01.540Z,10.47
2018-06-20T00:54:29.692Z,5.60
2018-06-20T00:56:57.784Z,5.40
2018-06-20T00:59:25.907Z,5.43
2018-06-20T01:01:54.037Z,6.30
2018-06-20T01:04:22.189Z,5.63
2018-06-20T01:06:50.369Z,6.63
2018-06-20T01:09:18.540Z,8.57
2018-06-20T01:11:46.807Z,5.93
2018-06-20T01:14:14.937Z,6.10
2018-06-20T01:16:43.188Z,7.63
2018-06-20T01:19:11.487Z,6.37
2018-06-20T01:21:39.643Z,6.23
2018-06-20T01:24:07.883Z,7.70
2018-06-20T01:26:36.072Z,7.80
2018-06-20T01:29:04.350Z,8.70
2018-06-20T01:31:32.515Z,6.27
2018-06-20T01:34:00.707Z,10.47
2018-06-20T01:36:28.895Z,6.93
2018-06-20T01:38:57.059Z,9.53
2018-06-20T01:41:25.253Z,6.63
2018-06-20T01:43:53.417Z,7.93
2018-06-20T01:46:21.584Z,8.00
2018-06-20T01:48:49.727Z,8.20
2018-06-20T01:51:17.922Z,7.57
2018-06-20T01:53:46.075Z,6.57
2018-06-20T01:56:14.277Z,8.27
2018-06-20T01:58:42.434Z,9.40
2018-06-20T02:01:10.683Z,8.70
2018-06-20T02:06:18.024Z,9.97
2018-06-20T02:08:46.192Z,9.47
2018-06-20T02:11:14.387Z,8.63
2018-06-20T02:13:42.553Z,8.30
2018-06-20T02:16:11.555Z,11.27
2018-06-20T02:18:39.688Z,8.20
2018-06-20T02:21:07.848Z,8.30
2018-06-20T02:23:35.978Z,7.03
2018-06-20T02:26:04.151Z,8.27
2018-06-20T02:28:32.305Z,8.73
2018-06-20T02:31:00.465Z,8.07
2018-06-20T02:33:28.633Z,11.50
2018-06-20T02:36:01.363Z,8.03
2018-06-20T02:38:29.560Z,8.97
2018-06-20T02:40:57.702Z,10.13
2018-06-20T02:43:25.918Z,10.03
2018-06-20T02:45:54.092Z,9.90
2018-06-20T02:48:22.257Z,8.90
2018-06-20T02:50:50.430Z,9.27
2018-06-20T02:53:18.588Z,9.90
2018-06-20T02:55:46.834Z,12.80
2018-06-20T02:58:15.093Z,9.63
2018-06-20T03:00:43.261Z,8.53
2018-06-20T03:03:11.503Z,8.03
2018-06-20T03:05:39.638Z,10.10
2018-06-20T03:08:07.808Z,11.70
2018-06-20T03:10:35.940Z,12.63
2018-06-20T03:13:04.136Z,10.17
2018-06-20T03:15:32.318Z,12.93
2018-06-20T03:18:00.500Z,12.23
2018-06-20T03:20:28.676Z,13.57
2018-06-20T03:22:56.893Z,8.77
2018-06-20T03:25:25.080Z,10.57
2018-06-20T03:27:53.256Z,10.67
2018-06-20T03:30:21.409Z,9.47
2018-06-20T03:32:49.555Z,11.27
2018-06-20T03:35:17.715Z,10.90
2018-06-20T03:37:45.948Z,12.30
2018-06-20T03:40:14.133Z,9.73
2018-06-20T03:42:42.288Z,8.37
2018-06-20T03:45:10.479Z,10.70
2018-06-20T03:47:38.654Z,8.57
2018-06-20T03:50:06.873Z,12.43
2018-06-20T03:52:34.995Z,11.57
2018-06-20T03:55:03.155Z,8.87
2018-06-20T03:57:31.429Z,8.97
2018-06-20T03:59:59.587Z,8.37
2018-06-20T04:02:27.732Z,10.83
2018-06-20T04:04:55.898Z,9.90
2018-06-20T04:07:24.077Z,10.80
2018-06-20T04:09:52.256Z,12.60
2018-06-20T04:12:20.452Z,10.47
2018-06-20T04:14:48.806Z,9.90
2018-06-20T04:17:17.034Z,9.70
2018-06-20T04:19:45.224Z,8.30
2018-06-20T04:22:13.409Z,11.57
2018-06-20T04:24:41.572Z,13.37
2018-06-20T04:27:09.762Z,8.47
2018-06-20T04:29:37.932Z,10.97
2018-06-20T04:32:06.120Z,8.10
2018-06-20T04:34:34.319Z,11.87
2018-06-20T04:37:02.590Z,11.77
2018-06-20T04:39:30.736Z,12.00
2018-06-20T04:41:58.920Z,10.77
2018-06-20T04:44:27.096Z,8.47
2018-06-20T04:46:55.306Z,8.80
2018-06-20T04:49:23.448Z,9.90
2018-06-20T04:51:51.724Z,9.20
2018-06-20T04:54:19.871Z,9.53
2018-06-20T04:56:48.064Z,11.30
2018-06-20T04:59:16.250Z,10.40
2018-06-20T05:01:44.463Z,9.43
2018-06-20T05:04:12.628Z,8.73
2018-06-20T05:06:40.836Z,7.30
2018-06-20T05:09:14.435Z,7.30
2018-06-20T05:11:42.672Z,11.53
2018-06-20T05:14:10.820Z,7.30
2018-06-20T05:16:39.047Z,9.07
2018-06-20T05:19:07.235Z,9.77
2018-06-20T05:21:35.399Z,7.70
2018-06-20T05:24:03.608Z,8.87
2018-06-20T05:26:31.783Z,8.77
2018-06-20T05:28:59.996Z,8.00
2018-06-20T05:31:28.232Z,10.17
2018-06-20T05:33:56.436Z,7.23
2018-06-20T05:36:24.991Z,10.73
2018-06-20T05:38:53.234Z,8.03
2018-06-20T05:41:21.440Z,10.80
2018-06-20T05:43:49.633Z,9.73
2018-06-20T05:46:17.904Z,8.63
2018-06-20T05:48:46.304Z,8.93
2018-06-20T05:51:14.514Z,9.07
2018-06-20T05:53:42.588Z,11.33
2018-06-20T05:56:10.703Z,9.73
2018-06-20T05:58:39.012Z,10.83
2018-06-20T06:01:07.162Z,9.07
2018-06-20T06:03:35.299Z,9.93
2018-06-20T06:06:09.608Z,8.23
2018-06-20T06:08:37.777Z,9.87
2018-06-20T06:11:05.903Z,8.27
2018-06-20T06:13:34.026Z,7.77
2018-06-20T06:16:02.130Z,8.90
2018-06-20T06:18:30.260Z,7.80
2018-06-20T06:20:58.513Z,8.47
2018-06-20T06:23:26.697Z,9.03
2018-06-20T06:25:55.370Z,10.87
2018-06-20T06:28:23.528Z,14.23
2018-06-20T06:30:51.665Z,8.33
2018-06-20T06:33:19.893Z,12.20
2018-06-20T06:35:48.068Z,7.40
2018-06-20T06:38:16.294Z,9.60
2018-06-20T06:40:44.523Z,6.70
2018-06-20T06:43:12.672Z,8.87
2018-06-20T06:45:40.885Z,8.30
2018-06-20T06:48:09.084Z,6.23
2018-06-20T06:50:37.241Z,8.50
2018-06-20T06:53:05.457Z,9.40
2018-06-20T06:55:33.861Z,5.50
2018-06-20T06:58:02.003Z,7.07
2018-06-20T07:00:30.348Z,14.77
2018-06-20T07:02:58.684Z,10.20
2018-06-20T07:05:26.916Z,6.17
2018-06-20T07:07:55.160Z,5.70
2018-06-20T07:10:23.485Z,6.43
2018-06-20T07:12:51.807Z,7.97
2018-06-20T07:15:19.924Z,7.93
2018-06-20T07:17:48.189Z,10.10
2018-06-20T07:20:16.311Z,4.77
2018-06-20T07:22:44.491Z,4.07
2018-06-20T07:25:12.672Z,6.17
2018-06-20T07:27:40.853Z,3.80
2018-06-20T07:30:09.149Z,8.10
2018-06-20T07:32:37.392Z,4.00
2018-06-20T07:35:05.532Z,4.43
2018-06-20T07:37:33.761Z,4.97
2018-06-20T07:40:01.901Z,5.03
2018-06-20T07:42:30.035Z,5.57
2018-06-20T07:44:58.380Z,7.83
2018-06-20T07:47:26.487Z,6.17
2018-06-20T07:49:54.721Z,7.73
2018-06-20T07:52:22.933Z,4.27
2018-06-20T07:54:51.117Z,7.30
2018-06-20T07:57:19.272Z,5.63
2018-06-20T07:59:52.847Z,4.30
2018-06-20T08:02:32.070Z,6.17
2018-06-20T08:05:05.637Z,3.37
2018-06-20T08:07:39.072Z,5.00
2018-06-20T08:10:12.495Z,3.90
2018-06-20T08:12:46.026Z,3.40
2018-06-20T08:17:21.986Z,4.23
2018-06-20T08:19:51.556Z,5.17
2018-06-20T08:22:21.263Z,3.70
2018-06-20T08:25:07.011Z,6.37
2018-06-20T08:27:36.489Z,8.23
2018-06-20T08:30:07.081Z,3.77
2018-06-20T08:32:35.989Z,4.23
2018-06-20T08:35:04.232Z,3.97
2018-06-20T08:37:32.716Z,3.60
2018-06-20T08:40:01.188Z,3.57
2018-06-20T08:42:29.660Z,5.63
2018-06-20T08:44:58.165Z,6.23
2018-06-20T08:47:26.684Z,5.63
2018-06-20T08:49:55.848Z,3.77
2018-06-20T08:52:24.649Z,5.50
2018-06-20T08:54:52.796Z,5.73
2018-06-20T08:57:21.216Z,4.47
2018-06-20T08:59:49.343Z,5.53
2018-06-20T09:02:18.466Z,3.40
2018-06-20T09:04:51.976Z,4.60
2018-06-20T09:07:25.507Z,6.87
2018-06-20T09:09:59.125Z,4.57
2018-06-20T09:12:32.706Z,2.47
2018-06-20T09:15:06.243Z,4.67
2018-06-20T09:17:39.794Z,4.43
2018-06-20T09:20:08.016Z,3.57
2018-06-20T09:22:36.161Z,2.73
2018-06-20T09:25:04.282Z,6.67
2018-06-20T09:27:32.476Z,3.53
2018-06-20T09:30:00.969Z,2.90
2018-06-20T09:32:29.225Z,4.30
2018-06-20T09:34:57.312Z,3.63
2018-06-20T09:37:25.561Z,4.80
2018-06-20T09:39:53.707Z,3.07
2018-06-20T09:42:21.826Z,6.23
2018-06-20T09:44:49.927Z,4.77
2018-06-20T09:47:18.060Z,5.40
2018-06-20T09:49:46.224Z,3.50
2018-06-20T09:52:14.392Z,4.73
2018-06-20T09:54:42.538Z,5.83
2018-06-20T09:57:10.773Z,3.37
2018-06-20T09:59:44.221Z,5.93
2018-06-20T10:02:17.774Z,3.70
2018-06-20T10:04:51.353Z,4.87
2018-06-20T10:07:26.727Z,2.53
2018-06-20T10:10:58.892Z,3.50
2018-06-20T10:13:27.347Z,5.93
2018-06-20T10:15:55.442Z,2.30
2018-06-20T10:18:24.149Z,4.63
2018-06-20T10:20:52.272Z,2.67
2018-06-20T10:23:20.441Z,3.40
2018-06-20T10:25:49.048Z,5.03
2018-06-20T10:28:17.344Z,4.50
2018-06-20T10:30:45.530Z,3.10
2018-06-20T10:33:13.745Z,2.80
2018-06-20T10:35:41.951Z,4.67
2018-06-20T10:38:10.110Z,8.50
2018-06-20T10:40:38.237Z,5.97
2018-06-20T10:43:06.380Z,4.67
2018-06-20T10:45:39.961Z,5.80
2018-06-20T10:48:14.712Z,5.00
2018-06-20T10:50:42.879Z,2.63
2018-06-20T10:53:11.296Z,3.53
2018-06-20T10:55:40.124Z,3.03
2018-06-20T10:58:13.859Z,4.03
2018-06-20T11:00:47.554Z,3.37
2018-06-20T11:03:20.997Z,4.50
2018-06-20T11:05:54.614Z,2.73
2018-06-20T11:08:28.102Z,7.10
2018-06-20T11:11:01.654Z,4.37
2018-06-20T11:13:29.764Z,3.97
2018-06-20T11:15:57.861Z,3.43
2018-06-20T11:18:26.077Z,2.73
2018-06-20T11:20:56.544Z,2.80
2018-06-20T11:23:24.897Z,3.67
2018-06-20T11:25:53.205Z,3.73
2018-06-20T11:28:21.380Z,3.30
2018-06-20T11:30:49.517Z,4.37
2018-06-20T11:33:17.664Z,3.10
2018-06-20T11:35:45.912Z,2.90
2018-06-20T11:38:14.082Z,4.90
2018-06-20T11:40:42.355Z,2.97
2018-06-20T11:43:10.528Z,4.47
2018-06-20T11:45:44.051Z,5.00
2018-06-20T11:48:12.271Z,3.57
2018-06-20T11:50:40.384Z,3.37
2018-06-20T11:53:09.697Z,3.30
2018-06-20T11:55:41.098Z,3.13
2018-06-20T11:58:14.763Z,11.47
2018-06-20T12:00:48.190Z,2.73
2018-06-20T12:03:21.716Z,3.17
2018-06-20T12:05:55.415Z,5.40
2018-06-20T12:08:29.131Z,3.37
2018-06-20T12:11:02.845Z,5.93
2018-06-20T12:13:36.348Z,3.00
2018-06-20T12:16:09.947Z,2.80
2018-06-20T12:18:43.457Z,4.03
2018-06-20T12:21:17.142Z,3.00
2018-06-20T12:23:50.721Z,4.60
2018-06-20T12:26:24.168Z,3.20
2018-06-20T12:28:57.540Z,3.00
2018-06-20T12:31:30.979Z,4.90
2018-06-20T12:34:04.420Z,5.03
2018-06-20T12:36:38.025Z,6.47
2018-06-20T12:39:06.291Z,6.73
2018-06-20T12:41:39.849Z,3.20
2018-06-20T12:44:13.464Z,4.77
2018-06-20T12:46:47.847Z,2.77
2018-06-20T12:49:18.769Z,3.73
2018-06-20T12:51:48.128Z,7.77
2018-06-20T12:54:16.287Z,4.30
2018-06-20T12:56:44.480Z,8.57
2018-06-20T12:59:12.656Z,3.77
2018-06-20T13:01:40.818Z,5.03
2018-06-20T13:04:09.250Z,4.60
2018-06-20T13:06:37.363Z,5.60
2018-06-20T13:09:07.314Z,5.90
2018-06-20T13:11:35.439Z,4.20
2018-06-20T13:14:03.614Z,3.97
2018-06-20T13:16:31.766Z,4.07
2018-06-20T13:19:01.071Z,4.10
2018-06-20T13:21:29.567Z,2.87
2018-06-20T13:23:57.722Z,2.33
2018-06-20T13:26:26.354Z,4.83
2018-06-20T13:28:54.751Z,5.63
2018-06-20T13:31:28.224Z,2.57
2018-06-20T13:34:01.728Z,3.50
2018-06-20T13:36:35.331Z,3.30
2018-06-20T13:39:08.800Z,2.77
2018-06-20T13:41:42.261Z,3.73
2018-06-20T13:44:10.743Z,2.73
2018-06-20T13:46:44.365Z,6.67
2018-06-20T13:49:12.517Z,2.93
2018-06-20T13:51:40.689Z,3.87
2018-06-20T13:54:08.808Z,3.87
2018-06-20T13:56:36.981Z,2.40
2018-06-20T13:59:05.085Z,2.47
2018-06-20T14:01:33.232Z,3.07
2018-06-20T14:04:01.380Z,3.30
2018-06-20T14:06:29.483Z,3.40
2018-06-20T14:08:57.583Z,5.37
2018-06-20T14:11:25.762Z,2.83
2018-06-20T14:13:53.847Z,5.13
2018-06-20T14:16:21.952Z,3.93
2018-06-20T14:18:50.125Z,5.53
2018-06-20T14:21:23.837Z,4.60
2018-06-20T14:23:51.969Z,3.73
2018-06-20T14:26:20.724Z,4.00
2018-06-20T14:28:48.900Z,6.03
2018-06-20T14:31:22.531Z,6.30
2018-06-20T14:33:56.030Z,2.20
2018-06-20T14:36:29.515Z,8.37
2018-06-20T14:39:03.123Z,2.20
2018-06-20T14:41:35.571Z,7.17
2018-06-20T14:44:06.162Z,4.60
2018-06-20T14:46:34.280Z,5.43
2018-06-20T14:49:02.429Z,3.17
2018-06-20T14:51:30.580Z,2.90
2018-06-20T14:53:58.748Z,2.23
2018-06-20T14:56:26.906Z,4.60
2018-06-20T14:58:55.085Z,8.07
2018-06-20T15:01:23.244Z,2.87
2018-06-20T15:03:51.440Z,2.40
2018-06-20T15:06:19.596Z,3.67
2018-06-20T15:08:47.737Z,2.60
2018-06-20T15:11:15.923Z,2.13
2018-06-20T15:13:44.037Z,2.37
2018-06-20T15:16:17.469Z,2.33
2018-06-20T15:18:45.824Z,3.43
2018-06-20T15:21:13.971Z,2.80
2018-06-20T15:23:42.127Z,4.10
2018-06-20T15:26:15.522Z,2.53
2018-06-20T15:28:49.090Z,1.97
2018-06-20T15:31:22.654Z,2.63
2018-06-20T15:33:56.314Z,2.20
2018-06-20T15:36:29.733Z,2.07
2018-06-20T15:38:57.863Z,4.43
2018-06-20T15:41:25.983Z,2.53
2018-06-20T15:43:54.144Z,3.57
2018-06-20T15:46:22.268Z,4.83
2018-06-20T15:48:50.410Z,3.40
2018-06-20T15:51:18.533Z,3.27
2018-06-20T15:53:46.637Z,2.20
2018-06-20T15:56:15.895Z,4.67
2018-06-20T15:58:44.017Z,3.37
2018-06-20T16:01:12.183Z,9.80
2018-06-20T16:03:40.378Z,3.13
2018-06-20T16:06:08.526Z,2.20
2018-06-20T16:08:42.005Z,2.60
2018-06-20T16:11:10.187Z,2.20
2018-06-20T16:13:38.378Z,2.03
2018-06-20T16:16:06.696Z,3.93
2018-06-20T16:18:34.885Z,2.50
2018-06-20T16:21:08.348Z,2.70
2018-06-20T16:23:41.855Z,3.47
2018-06-20T16:26:15.440Z,2.70
2018-06-20T16:29:48.470Z,2.97
2018-06-20T16:32:16.630Z,3.17
2018-06-20T16:34:45.894Z,4.40
2018-06-20T16:37:14.041Z,3.77
2018-06-20T16:39:42.194Z,2.27
2018-06-20T16:42:11.328Z,1.90
2018-06-20T16:44:40.105Z,3.00
2018-06-20T16:47:09.100Z,5.10
2018-06-20T16:49:37.247Z,2.10
2018-06-20T16:52:05.382Z,2.37
2018-06-20T16:54:33.584Z,3.80
2018-06-20T16:57:01.715Z,4.40
2018-06-20T16:59:30.078Z,3.67
2018-06-20T17:02:03.706Z,3.17
2018-06-20T17:04:32.714Z,2.67
2018-06-20T17:07:01.890Z,4.23
2018-06-20T17:09:30.029Z,2.13
2018-06-20T17:12:03.709Z,2.83
2018-06-20T17:14:37.213Z,4.10
2018-06-20T17:17:11.781Z,3.73
2018-06-20T17:19:45.410Z,2.03
2018-06-20T17:22:19.005Z,4.40
2018-06-20T17:24:52.490Z,2.63
2018-06-20T17:27:20.619Z,3.87
2018-06-20T17:29:48.810Z,1.97
2018-06-20T17:32:17.008Z,1.73
2018-06-20T17:34:45.216Z,3.93
2018-06-20T17:37:13.451Z,2.10
2018-06-20T17:39:42.313Z,4.43
2018-06-20T17:42:10.482Z,6.07
2018-06-20T17:44:38.667Z,3.63
2018-06-20T17:47:06.820Z,1.97
2018-06-20T17:49:35.864Z,4.07
2018-06-20T17:52:04.060Z,4.27
2018-06-20T17:54:32.339Z,4.63
2018-06-20T17:57:01.478Z,3.77
2018-06-20T17:59:31.466Z,6.33
2018-06-20T18:01:59.665Z,3.57
2018-06-20T18:04:33.114Z,3.40
2018-06-20T18:07:06.699Z,5.93
2018-06-20T18:09:40.216Z,2.40
2018-06-20T18:12:13.729Z,4.37
2018-06-20T18:14:47.309Z,9.30
2018-06-20T18:17:15.535Z,12.20
2018-06-20T18:19:43.748Z,6.70
2018-06-20T18:22:12.860Z,16.20
2018-06-20T18:24:41.086Z,6.20
2018-06-20T18:27:09.416Z,5.07
2018-06-20T18:29:37.589Z,21.00
2018-06-20T18:32:05.838Z,8.43
2018-06-20T18:34:34.057Z,21.67
2018-06-20T18:37:02.224Z,9.77
2018-06-20T18:39:35.920Z,5.23
2018-06-20T18:42:04.117Z,8.73
2018-06-20T18:44:32.399Z,3.17
2018-06-20T18:47:00.654Z,10.63
2018-06-20T18:49:28.959Z,8.67
2018-06-20T18:51:57.206Z,12.27
2018-06-20T18:54:25.389Z,22.93
2018-06-20T18:56:53.633Z,18.70
2018-06-20T18:59:27.135Z,17.27
2018-06-20T19:02:01.185Z,13.77
2018-06-20T19:04:34.789Z,11.17
2018-06-20T19:07:08.363Z,17.20
2018-06-20T19:09:37.618Z,50.87
2018-06-20T19:12:05.892Z,98.50
2018-06-20T19:14:34.212Z,56.10
2018-06-20T19:17:02.404Z,22.80
2018-06-20T19:19:32.593Z,5.37
2018-06-20T19:22:00.967Z,5.00
2018-06-20T19:24:29.261Z,4.47
2018-06-20T19:26:57.515Z,5.20
2018-06-20T19:29:25.737Z,8.93
2018-06-20T19:31:54.229Z,5.57
2018-06-20T19:34:23.127Z,6.17
2018-06-20T19:36:51.644Z,10.13
2018-06-20T19:39:25.208Z,29.07
2018-06-20T19:41:53.452Z,28.10
2018-06-20T19:44:26.897Z,21.57
2018-06-20T19:46:55.167Z,11.90
2018-06-20T19:49:24.435Z,7.30
2018-06-20T19:51:53.061Z,21.60
2018-06-20T19:54:21.356Z,64.00
2018-06-20T19:56:49.746Z,29.97
2018-06-20T19:59:17.978Z,23.97
2018-06-20T20:01:46.780Z,24.43
2018-06-20T20:04:15.000Z,28.47
2018-06-20T20:06:43.257Z,30.43
2018-06-20T20:09:11.683Z,9.90
2018-06-20T20:11:40.229Z,16.20
2018-06-20T20:14:08.873Z,12.90
2018-06-20T20:16:38.262Z,13.73
2018-06-20T20:19:06.751Z,17.90
2018-06-20T20:21:35.647Z,18.03
2018-06-20T20:24:04.267Z,18.40
2018-06-20T20:26:32.933Z,9.63
2018-06-20T20:29:01.084Z,10.00
2018-06-20T20:31:29.297Z,6.07
2018-06-20T20:33:57.599Z,6.67
2018-06-20T20:36:25.754Z,6.77
2018-06-20T20:38:53.947Z,5.33
2018-06-20T20:41:22.736Z,33.53
2018-06-20T20:43:50.839Z,10.67
2018-06-20T20:46:19.096Z,9.30
2018-06-20T20:48:47.225Z,6.17
2018-06-20T20:51:15.408Z,4.80
2018-06-20T20:53:43.890Z,7.13
2018-06-20T20:56:12.123Z,6.70
2018-06-20T20:58:40.276Z,5.50
2018-06-20T21:01:08.480Z,4.70
2018-06-20T21:03:36.746Z,4.03
2018-06-20T21:06:05.862Z,7.70
2018-06-20T21:08:34.175Z,23.30
2018-06-20T21:11:02.590Z,15.33
2018-06-20T21:13:30.885Z,11.40
2018-06-20T21:15:59.160Z,6.93
2018-06-20T21:18:27.449Z,10.27
2018-06-20T21:20:55.726Z,7.63
2018-06-20T21:23:23.993Z,4.40
2018-06-20T21:25:52.318Z,6.23
2018-06-20T21:28:20.524Z,5.10
2018-06-20T21:30:48.826Z,5.17
2018-06-20T21:33:16.975Z,4.13
2018-06-20T21:35:45.220Z,6.30
2018-06-20T21:38:13.455Z,3.97
2018-06-20T21:40:41.663Z,4.77
2018-06-20T21:43:09.794Z,4.87
2018-06-20T21:45:38.402Z,6.03
2018-06-20T21:48:06.639Z,5.87
2018-06-20T21:50:34.805Z,4.17
2018-06-20T21:53:03.171Z,5.53
2018-06-20T21:55:31.408Z,5.17
2018-06-20T21:58:00.447Z,4.63
2018-06-20T22:00:30.259Z,4.73
2018-06-20T22:02:58.448Z,4.07
2018-06-20T22:05:26.578Z,8.23
2018-06-20T22:07:54.855Z,9.13
2018-06-20T22:10:22.991Z,4.80
2018-06-20T22:12:51.269Z,4.13
2018-06-20T22:15:19.518Z,7.60
2018-06-20T22:17:47.758Z,7.57
2018-06-20T22:20:15.931Z,5.80
2018-06-20T22:22:44.450Z,7.57
2018-06-20T22:25:12.708Z,7.87
2018-06-20T22:27:40.969Z,8.07
2018-06-20T22:30:09.154Z,7.57
2018-06-20T22:32:37.500Z,6.07
2018-06-20T22:35:06.377Z,7.17
2018-06-20T22:37:34.849Z,7.67
2018-06-20T22:40:03.449Z,5.60
2018-06-20T22:42:31.949Z,7.23
2018-06-20T22:45:01.794Z,8.33
2018-06-20T22:47:30.292Z,7.77
2018-06-20T22:49:58.993Z,8.17
2018-06-20T22:52:27.584Z,9.10
2018-06-20T22:54:55.701Z,10.00
2018-06-20T22:57:24.027Z,8.60
2018-06-20T22:59:52.130Z,9.57
2018-06-20T23:02:20.308Z,8.70
2018-06-20T23:04:48.509Z,8.57
2018-06-20T23:07:16.683Z,11.03
2018-06-20T23:09:44.941Z,10.60
2018-06-20T23:12:13.150Z,10.13
2018-06-20T23:14:41.468Z,12.13
2018-06-20T23:17:10.504Z,8.30
2018-06-20T23:19:38.646Z,9.57
2018-06-20T23:22:06.802Z,8.97
2018-06-20T23:24:34.957Z,10.00
2018-06-20T23:27:03.356Z,7.70
2018-06-20T23:29:31.924Z,8.03
2018-06-20T23:32:00.057Z,7.67
2018-06-20T23:34:28.216Z,8.83
2018-06-20T23:36:56.975Z,9.50
2018-06-20T23:39:25.119Z,8.63
2018-06-20T23:41:53.499Z,8.27
2018-06-20T23:44:21.664Z,10.47
2018-06-20T23:46:49.785Z,14.47
2018-06-20T23:49:17.891Z,9.20
2018-06-20T23:51:46.055Z,11.23
2018-06-20T23:54:14.746Z,9.23
2018-06-20T23:56:42.868Z,8.47
2018-06-20T23:59:11.780Z,10.50
